sensor_id;sensor_type;location;lat;lon;timestamp;P1;durP1;ratioP1;P2;durP2;ratioP2
72127;SDS011;60000;51.030;7.024;2024-01-06T00:00:16;11.25;;;5.00;;
72127;SDS011;60000;51.030;7.024;2024-01-06T00:02:41;9.87;;;5.37;;
72127;SDS011;60000;51.030;7.024;2024-01-06T00:05:07;9.30;;;4.97;;
72127;SDS011;60000;51.030;7.024;2024-01-06T00:07:32;9.60;;;5.03;;
72127;SDS011;60000;51.030;7.024;2024-01-06T00:09:57;9.83;;;5.20;;
72127;SDS011;60000;51.030;7.024;2024-01-06T00:12:23;12.73;;;5.10;;
72127;SDS011;60000;51.030;7.024;2024-01-06T00:14:48;9.43;;;4.80;;
72127;SDS011;60000;51.030;7.024;2024-01-06T00:17:13;9.53;;;5.43;;
72127;SDS011;60000;51.030;7.024;2024-01-06T00:19:39;8.07;;;4.38;;
72127;SDS011;60000;51.030;7.024;2024-01-06T00:22:04;8.57;;;5.05;;
72127;SDS011;60000;51.030;7.024;2024-01-06T00:24:30;8.10;;;4.50;;
72127;SDS011;60000;51.030;7.024;2024-01-06T00:26:55;8.83;;;4.00;;
72127;SDS011;60000;51.030;7.024;2024-01-06T00:29:21;8.83;;;4.27;;
72127;SDS011;60000;51.030;7.024;2024-01-06T00:31:46;8.57;;;4.03;;
72127;SDS011;60000;51.030;7.024;2024-01-06T00:34:11;10.60;;;4.80;;
72127;SDS011;60000;51.030;7.024;2024-01-06T00:36:37;10.02;;;4.70;;
72127;SDS011;60000;51.030;7.024;2024-01-06T00:39:02;21.03;;;9.70;;
72127;SDS011;60000;51.030;7.024;2024-01-06T00:41:28;15.60;;;7.20;;
72127;SDS011;60000;51.030;7.024;2024-01-06T00:43:54;17.48;;;8.45;;
72127;SDS011;60000;51.030;7.024;2024-01-06T00:46:19;13.27;;;5.70;;
72127;SDS011;60000;51.030;7.024;2024-01-06T00:48:44;23.93;;;10.90;;
72127;SDS011;60000;51.030;7.024;2024-01-06T00:51:10;20.10;;;10.03;;
72127;SDS011;60000;51.030;7.024;2024-01-06T00:53:35;14.27;;;6.60;;
72127;SDS011;60000;51.030;7.024;2024-01-06T00:56:00;8.60;;;4.90;;
72127;SDS011;60000;51.030;7.024;2024-01-06T00:58:26;18.48;;;8.75;;
72127;SDS011;60000;51.030;7.024;2024-01-06T01:00:51;37.15;;;16.33;;
72127;SDS011;60000;51.030;7.024;2024-01-06T01:03:16;14.73;;;6.70;;
72127;SDS011;60000;51.030;7.024;2024-01-06T01:05:42;35.10;;;13.93;;
72127;SDS011;60000;51.030;7.024;2024-01-06T01:08:07;19.80;;;9.50;;
72127;SDS011;60000;51.030;7.024;2024-01-06T01:10:33;31.80;;;13.33;;
72127;SDS011;60000;51.030;7.024;2024-01-06T01:12:58;34.90;;;15.90;;
72127;SDS011;60000;51.030;7.024;2024-01-06T01:15:23;17.60;;;9.37;;
72127;SDS011;60000;51.030;7.024;2024-01-06T01:17:48;17.90;;;8.93;;
72127;SDS011;60000;51.030;7.024;2024-01-06T01:20:14;13.95;;;6.72;;
72127;SDS011;60000;51.030;7.024;2024-01-06T01:22:39;12.00;;;6.17;;
72127;SDS011;60000;51.030;7.024;2024-01-06T01:25:04;21.17;;;11.93;;
72127;SDS011;60000;51.030;7.024;2024-01-06T01:27:32;13.90;;;8.35;;
72127;SDS011;60000;51.030;7.024;2024-01-06T01:29:58;16.60;;;8.93;;
72127;SDS011;60000;51.030;7.024;2024-01-06T01:32:24;11.88;;;6.15;;
72127;SDS011;60000;51.030;7.024;2024-01-06T01:34:49;11.67;;;7.80;;
72127;SDS011;60000;51.030;7.024;2024-01-06T01:37:15;12.23;;;6.97;;
72127;SDS011;60000;51.030;7.024;2024-01-06T01:39:40;14.60;;;8.18;;
72127;SDS011;60000;51.030;7.024;2024-01-06T01:42:06;11.87;;;6.67;;
72127;SDS011;60000;51.030;7.024;2024-01-06T01:44:31;12.20;;;6.27;;
72127;SDS011;60000;51.030;7.024;2024-01-06T01:46:56;11.50;;;5.90;;
72127;SDS011;60000;51.030;7.024;2024-01-06T01:49:22;10.67;;;5.43;;
72127;SDS011;60000;51.030;7.024;2024-01-06T01:51:47;10.57;;;5.00;;
72127;SDS011;60000;51.030;7.024;2024-01-06T01:54:14;11.17;;;5.43;;
72127;SDS011;60000;51.030;7.024;2024-01-06T01:56:40;12.10;;;6.40;;
72127;SDS011;60000;51.030;7.024;2024-01-06T01:59:11;11.00;;;5.55;;
72127;SDS011;60000;51.030;7.024;2024-01-06T02:01:38;10.85;;;6.00;;
72127;SDS011;60000;51.030;7.024;2024-01-06T02:04:04;11.63;;;6.03;;
72127;SDS011;60000;51.030;7.024;2024-01-06T02:06:30;11.18;;;5.85;;
72127;SDS011;60000;51.030;7.024;2024-01-06T02:08:55;11.63;;;5.97;;
72127;SDS011;60000;51.030;7.024;2024-01-06T02:11:20;10.00;;;5.87;;
72127;SDS011;60000;51.030;7.024;2024-01-06T02:13:46;12.03;;;6.27;;
72127;SDS011;60000;51.030;7.024;2024-01-06T02:16:11;10.00;;;5.30;;
72127;SDS011;60000;51.030;7.024;2024-01-06T02:18:36;10.73;;;6.13;;
72127;SDS011;60000;51.030;7.024;2024-01-06T02:21:02;10.40;;;4.93;;
72127;SDS011;60000;51.030;7.024;2024-01-06T02:23:28;9.50;;;4.93;;
72127;SDS011;60000;51.030;7.024;2024-01-06T02:25:54;10.70;;;5.00;;
72127;SDS011;60000;51.030;7.024;2024-01-06T02:28:21;11.53;;;6.30;;
72127;SDS011;60000;51.030;7.024;2024-01-06T02:30:46;11.48;;;5.78;;
72127;SDS011;60000;51.030;7.024;2024-01-06T02:33:11;12.07;;;5.80;;
72127;SDS011;60000;51.030;7.024;2024-01-06T02:35:37;10.13;;;5.33;;
72127;SDS011;60000;51.030;7.024;2024-01-06T02:38:02;10.13;;;5.03;;
72127;SDS011;60000;51.030;7.024;2024-01-06T02:40:28;12.18;;;6.50;;
72127;SDS011;60000;51.030;7.024;2024-01-06T02:42:53;14.40;;;7.13;;
72127;SDS011;60000;51.030;7.024;2024-01-06T02:45:19;13.10;;;7.70;;
72127;SDS011;60000;51.030;7.024;2024-01-06T02:47:44;13.83;;;7.33;;
72127;SDS011;60000;51.030;7.024;2024-01-06T02:50:09;15.57;;;7.43;;
72127;SDS011;60000;51.030;7.024;2024-01-06T02:52:35;14.55;;;7.90;;
72127;SDS011;60000;51.030;7.024;2024-01-06T02:55:00;12.50;;;6.87;;
72127;SDS011;60000;51.030;7.024;2024-01-06T02:57:26;13.87;;;7.43;;
72127;SDS011;60000;51.030;7.024;2024-01-06T02:59:53;12.75;;;6.70;;
72127;SDS011;60000;51.030;7.024;2024-01-06T03:02:18;12.33;;;6.37;;
72127;SDS011;60000;51.030;7.024;2024-01-06T03:04:43;12.70;;;6.20;;
72127;SDS011;60000;51.030;7.024;2024-01-06T03:07:08;10.33;;;6.10;;
72127;SDS011;60000;51.030;7.024;2024-01-06T03:09:34;10.67;;;5.70;;
72127;SDS011;60000;51.030;7.024;2024-01-06T03:11:59;13.07;;;6.57;;
72127;SDS011;60000;51.030;7.024;2024-01-06T03:14:24;14.00;;;6.18;;
72127;SDS011;60000;51.030;7.024;2024-01-06T03:16:50;12.73;;;6.07;;
72127;SDS011;60000;51.030;7.024;2024-01-06T03:19:15;13.10;;;6.13;;
72127;SDS011;60000;51.030;7.024;2024-01-06T03:21:40;15.00;;;7.00;;
72127;SDS011;60000;51.030;7.024;2024-01-06T03:24:06;13.07;;;6.47;;
72127;SDS011;60000;51.030;7.024;2024-01-06T03:26:33;12.40;;;6.80;;
72127;SDS011;60000;51.030;7.024;2024-01-06T03:28:59;11.07;;;6.03;;
72127;SDS011;60000;51.030;7.024;2024-01-06T03:31:24;11.23;;;6.10;;
72127;SDS011;60000;51.030;7.024;2024-01-06T03:33:49;11.93;;;6.40;;
72127;SDS011;60000;51.030;7.024;2024-01-06T03:36:16;12.60;;;6.60;;
72127;SDS011;60000;51.030;7.024;2024-01-06T03:38:42;12.27;;;6.30;;
72127;SDS011;60000;51.030;7.024;2024-01-06T03:41:07;11.73;;;6.50;;
72127;SDS011;60000;51.030;7.024;2024-01-06T03:43:32;11.37;;;5.20;;
72127;SDS011;60000;51.030;7.024;2024-01-06T03:45:58;12.30;;;6.10;;
72127;SDS011;60000;51.030;7.024;2024-01-06T03:48:25;14.95;;;6.80;;
72127;SDS011;60000;51.030;7.024;2024-01-06T03:50:50;13.83;;;7.00;;
72127;SDS011;60000;51.030;7.024;2024-01-06T03:53:15;17.53;;;7.00;;
72127;SDS011;60000;51.030;7.024;2024-01-06T03:55:41;12.63;;;7.20;;
72127;SDS011;60000;51.030;7.024;2024-01-06T03:58:06;11.67;;;5.40;;
72127;SDS011;60000;51.030;7.024;2024-01-06T04:00:31;10.67;;;4.97;;
72127;SDS011;60000;51.030;7.024;2024-01-06T04:02:57;9.53;;;4.07;;
72127;SDS011;60000;51.030;7.024;2024-01-06T04:05:22;12.57;;;6.50;;
72127;SDS011;60000;51.030;7.024;2024-01-06T04:07:47;10.60;;;5.03;;
72127;SDS011;60000;51.030;7.024;2024-01-06T04:10:13;13.60;;;6.80;;
72127;SDS011;60000;51.030;7.024;2024-01-06T04:12:38;17.17;;;7.90;;
72127;SDS011;60000;51.030;7.024;2024-01-06T04:15:03;15.50;;;7.63;;
72127;SDS011;60000;51.030;7.024;2024-01-06T04:17:29;17.17;;;8.00;;
72127;SDS011;60000;51.030;7.024;2024-01-06T04:19:54;18.20;;;9.07;;
72127;SDS011;60000;51.030;7.024;2024-01-06T04:22:20;18.80;;;9.13;;
72127;SDS011;60000;51.030;7.024;2024-01-06T04:24:45;18.07;;;8.43;;
72127;SDS011;60000;51.030;7.024;2024-01-06T04:27:10;16.80;;;7.93;;
72127;SDS011;60000;51.030;7.024;2024-01-06T04:29:36;20.17;;;9.88;;
72127;SDS011;60000;51.030;7.024;2024-01-06T04:32:01;20.48;;;9.95;;
72127;SDS011;60000;51.030;7.024;2024-01-06T04:34:27;19.70;;;9.97;;
72127;SDS011;60000;51.030;7.024;2024-01-06T04:36:52;24.73;;;11.50;;
72127;SDS011;60000;51.030;7.024;2024-01-06T04:39:17;25.47;;;11.27;;
72127;SDS011;60000;51.030;7.024;2024-01-06T04:41:43;25.13;;;11.33;;
72127;SDS011;60000;51.030;7.024;2024-01-06T04:44:08;22.88;;;10.50;;
72127;SDS011;60000;51.030;7.024;2024-01-06T04:46:33;21.87;;;10.50;;
72127;SDS011;60000;51.030;7.024;2024-01-06T04:48:59;20.20;;;9.43;;
72127;SDS011;60000;51.030;7.024;2024-01-06T04:51:24;19.57;;;9.03;;
72127;SDS011;60000;51.030;7.024;2024-01-06T04:53:50;20.73;;;9.37;;
72127;SDS011;60000;51.030;7.024;2024-01-06T04:56:15;18.50;;;8.70;;
72127;SDS011;60000;51.030;7.024;2024-01-06T04:58:40;16.00;;;7.78;;
72127;SDS011;60000;51.030;7.024;2024-01-06T05:01:06;17.97;;;8.33;;
72127;SDS011;60000;51.030;7.024;2024-01-06T05:03:31;22.07;;;9.13;;
72127;SDS011;60000;51.030;7.024;2024-01-06T05:05:56;19.63;;;9.10;;
72127;SDS011;60000;51.030;7.024;2024-01-06T05:08:22;20.13;;;9.60;;
72127;SDS011;60000;51.030;7.024;2024-01-06T05:10:48;22.47;;;10.30;;
72127;SDS011;60000;51.030;7.024;2024-01-06T05:13:13;22.45;;;10.23;;
72127;SDS011;60000;51.030;7.024;2024-01-06T05:15:39;22.63;;;11.33;;
72127;SDS011;60000;51.030;7.024;2024-01-06T05:18:04;19.60;;;9.02;;
72127;SDS011;60000;51.030;7.024;2024-01-06T05:20:30;20.07;;;8.63;;
72127;SDS011;60000;51.030;7.024;2024-01-06T05:22:55;18.33;;;8.47;;
72127;SDS011;60000;51.030;7.024;2024-01-06T05:25:20;18.03;;;7.70;;
72127;SDS011;60000;51.030;7.024;2024-01-06T05:27:45;16.23;;;7.43;;
72127;SDS011;60000;51.030;7.024;2024-01-06T05:30:11;14.93;;;6.80;;
72127;SDS011;60000;51.030;7.024;2024-01-06T05:32:37;15.48;;;6.90;;
72127;SDS011;60000;51.030;7.024;2024-01-06T05:35:03;14.77;;;6.57;;
72127;SDS011;60000;51.030;7.024;2024-01-06T05:37:29;15.25;;;6.75;;
72127;SDS011;60000;51.030;7.024;2024-01-06T05:39:54;14.57;;;6.23;;
72127;SDS011;60000;51.030;7.024;2024-01-06T05:42:19;13.37;;;5.93;;
72127;SDS011;60000;51.030;7.024;2024-01-06T05:44:45;13.48;;;6.03;;
72127;SDS011;60000;51.030;7.024;2024-01-06T05:47:10;14.50;;;5.67;;
72127;SDS011;60000;51.030;7.024;2024-01-06T05:49:36;15.33;;;5.60;;
72127;SDS011;60000;51.030;7.024;2024-01-06T05:52:01;13.33;;;5.43;;
72127;SDS011;60000;51.030;7.024;2024-01-06T05:54:26;13.63;;;5.63;;
72127;SDS011;60000;51.030;7.024;2024-01-06T05:56:52;14.68;;;5.75;;
72127;SDS011;60000;51.030;7.024;2024-01-06T05:59:17;11.80;;;5.10;;
72127;SDS011;60000;51.030;7.024;2024-01-06T06:01:42;11.53;;;4.80;;
72127;SDS011;60000;51.030;7.024;2024-01-06T06:04:08;11.37;;;4.97;;
72127;SDS011;60000;51.030;7.024;2024-01-06T06:06:35;10.05;;;4.07;;
72127;SDS011;60000;51.030;7.024;2024-01-06T06:09:00;10.07;;;4.23;;
72127;SDS011;60000;51.030;7.024;2024-01-06T06:11:25;10.68;;;3.85;;
72127;SDS011;60000;51.030;7.024;2024-01-06T06:13:51;10.83;;;3.97;;
72127;SDS011;60000;51.030;7.024;2024-01-06T06:16:16;9.33;;;3.50;;
72127;SDS011;60000;51.030;7.024;2024-01-06T06:18:41;9.50;;;3.20;;
72127;SDS011;60000;51.030;7.024;2024-01-06T06:21:07;8.87;;;3.57;;
72127;SDS011;60000;51.030;7.024;2024-01-06T06:23:33;9.52;;;3.45;;
72127;SDS011;60000;51.030;7.024;2024-01-06T06:25:58;8.80;;;3.37;;
72127;SDS011;60000;51.030;7.024;2024-01-06T06:28:27;10.13;;;3.60;;
72127;SDS011;60000;51.030;7.024;2024-01-06T06:30:52;12.07;;;4.13;;
72127;SDS011;60000;51.030;7.024;2024-01-06T06:33:18;9.27;;;3.45;;
72127;SDS011;60000;51.030;7.024;2024-01-06T06:35:43;10.10;;;3.90;;
72127;SDS011;60000;51.030;7.024;2024-01-06T06:38:08;9.13;;;3.63;;
72127;SDS011;60000;51.030;7.024;2024-01-06T06:40:34;9.30;;;3.50;;
72127;SDS011;60000;51.030;7.024;2024-01-06T06:42:59;9.90;;;3.83;;
72127;SDS011;60000;51.030;7.024;2024-01-06T06:45:24;10.10;;;3.87;;
72127;SDS011;60000;51.030;7.024;2024-01-06T06:47:50;9.87;;;3.70;;
72127;SDS011;60000;51.030;7.024;2024-01-06T06:50:15;9.90;;;3.97;;
72127;SDS011;60000;51.030;7.024;2024-01-06T06:52:41;11.60;;;4.60;;
72127;SDS011;60000;51.030;7.024;2024-01-06T06:55:07;11.98;;;5.30;;
72127;SDS011;60000;51.030;7.024;2024-01-06T06:57:33;10.03;;;4.17;;
72127;SDS011;60000;51.030;7.024;2024-01-06T06:59:58;10.57;;;4.30;;
72127;SDS011;60000;51.030;7.024;2024-01-06T07:02:25;10.65;;;4.28;;
72127;SDS011;60000;51.030;7.024;2024-01-06T07:04:50;12.17;;;4.80;;
72127;SDS011;60000;51.030;7.024;2024-01-06T07:07:16;12.70;;;5.28;;
72127;SDS011;60000;51.030;7.024;2024-01-06T07:09:41;10.70;;;4.40;;
72127;SDS011;60000;51.030;7.024;2024-01-06T07:12:06;11.00;;;4.50;;
72127;SDS011;60000;51.030;7.024;2024-01-06T07:14:32;13.10;;;4.93;;
72127;SDS011;60000;51.030;7.024;2024-01-06T07:16:58;13.27;;;5.50;;
72127;SDS011;60000;51.030;7.024;2024-01-06T07:19:24;13.43;;;5.50;;
72127;SDS011;60000;51.030;7.024;2024-01-06T07:21:49;14.30;;;5.63;;
72127;SDS011;60000;51.030;7.024;2024-01-06T07:24:15;13.03;;;5.43;;
72127;SDS011;60000;51.030;7.024;2024-01-06T07:26:40;14.30;;;5.60;;
72127;SDS011;60000;51.030;7.024;2024-01-06T07:29:05;13.20;;;5.77;;
72127;SDS011;60000;51.030;7.024;2024-01-06T07:31:33;17.95;;;6.45;;
72127;SDS011;60000;51.030;7.024;2024-01-06T07:33:58;13.07;;;5.43;;
72127;SDS011;60000;51.030;7.024;2024-01-06T07:36:24;15.00;;;5.90;;
72127;SDS011;60000;51.030;7.024;2024-01-06T07:38:49;15.63;;;6.80;;
72127;SDS011;60000;51.030;7.024;2024-01-06T07:41:14;15.13;;;5.77;;
72127;SDS011;60000;51.030;7.024;2024-01-06T07:43:40;15.33;;;6.57;;
72127;SDS011;60000;51.030;7.024;2024-01-06T07:46:05;16.67;;;6.37;;
72127;SDS011;60000;51.030;7.024;2024-01-06T07:48:32;13.60;;;6.07;;
72127;SDS011;60000;51.030;7.024;2024-01-06T07:50:58;17.00;;;6.75;;
72127;SDS011;60000;51.030;7.024;2024-01-06T07:53:24;13.33;;;5.23;;
72127;SDS011;60000;51.030;7.024;2024-01-06T07:55:49;15.43;;;6.20;;
72127;SDS011;60000;51.030;7.024;2024-01-06T07:58:16;14.43;;;6.38;;
72127;SDS011;60000;51.030;7.024;2024-01-06T08:00:41;18.43;;;7.03;;
72127;SDS011;60000;51.030;7.024;2024-01-06T08:03:07;15.18;;;6.13;;
72127;SDS011;60000;51.030;7.024;2024-01-06T08:05:33;17.00;;;6.70;;
72127;SDS011;60000;51.030;7.024;2024-01-06T08:07:58;14.33;;;5.73;;
72127;SDS011;60000;51.030;7.024;2024-01-06T08:10:23;14.70;;;6.23;;
72127;SDS011;60000;51.030;7.024;2024-01-06T08:12:49;13.67;;;5.77;;
72127;SDS011;60000;51.030;7.024;2024-01-06T08:15:14;12.53;;;5.47;;
72127;SDS011;60000;51.030;7.024;2024-01-06T08:17:40;12.48;;;5.38;;
72127;SDS011;60000;51.030;7.024;2024-01-06T08:20:06;13.07;;;5.40;;
72127;SDS011;60000;51.030;7.024;2024-01-06T08:22:35;13.93;;;5.40;;
72127;SDS011;60000;51.030;7.024;2024-01-06T08:25:00;14.93;;;5.63;;
72127;SDS011;60000;51.030;7.024;2024-01-06T08:27:26;12.57;;;5.23;;
72127;SDS011;60000;51.030;7.024;2024-01-06T08:29:51;14.10;;;5.80;;
72127;SDS011;60000;51.030;7.024;2024-01-06T08:32:16;13.40;;;5.47;;
72127;SDS011;60000;51.030;7.024;2024-01-06T08:34:42;15.27;;;5.78;;
72127;SDS011;60000;51.030;7.024;2024-01-06T08:37:07;13.70;;;5.38;;
72127;SDS011;60000;51.030;7.024;2024-01-06T08:39:32;13.10;;;5.33;;
72127;SDS011;60000;51.030;7.024;2024-01-06T08:41:58;13.37;;;5.23;;
72127;SDS011;60000;51.030;7.024;2024-01-06T08:44:23;13.70;;;5.77;;
72127;SDS011;60000;51.030;7.024;2024-01-06T08:46:49;14.10;;;5.70;;
72127;SDS011;60000;51.030;7.024;2024-01-06T08:49:15;13.97;;;5.70;;
72127;SDS011;60000;51.030;7.024;2024-01-06T08:51:40;11.95;;;5.03;;
72127;SDS011;60000;51.030;7.024;2024-01-06T08:54:06;13.70;;;5.53;;
72127;SDS011;60000;51.030;7.024;2024-01-06T08:56:32;13.03;;;5.20;;
72127;SDS011;60000;51.030;7.024;2024-01-06T08:58:58;12.57;;;4.78;;
72127;SDS011;60000;51.030;7.024;2024-01-06T09:01:24;15.40;;;5.60;;
72127;SDS011;60000;51.030;7.024;2024-01-06T09:03:49;13.97;;;5.17;;
72127;SDS011;60000;51.030;7.024;2024-01-06T09:06:15;13.00;;;4.93;;
72127;SDS011;60000;51.030;7.024;2024-01-06T09:08:40;13.10;;;5.35;;
72127;SDS011;60000;51.030;7.024;2024-01-06T09:11:05;15.17;;;6.03;;
72127;SDS011;60000;51.030;7.024;2024-01-06T09:13:31;14.27;;;5.67;;
72127;SDS011;60000;51.030;7.024;2024-01-06T09:15:57;13.70;;;5.95;;
72127;SDS011;60000;51.030;7.024;2024-01-06T09:18:24;17.20;;;6.10;;
72127;SDS011;60000;51.030;7.024;2024-01-06T09:20:50;14.27;;;5.78;;
72127;SDS011;60000;51.030;7.024;2024-01-06T09:23:16;15.33;;;5.80;;
72127;SDS011;60000;51.030;7.024;2024-01-06T09:25:41;12.45;;;5.68;;
72127;SDS011;60000;51.030;7.024;2024-01-06T09:28:06;12.50;;;5.13;;
72127;SDS011;60000;51.030;7.024;2024-01-06T09:30:32;12.57;;;5.43;;
72127;SDS011;60000;51.030;7.024;2024-01-06T09:32:57;11.90;;;5.07;;
72127;SDS011;60000;51.030;7.024;2024-01-06T09:35:23;12.63;;;4.90;;
72127;SDS011;60000;51.030;7.024;2024-01-06T09:37:48;13.85;;;4.97;;
72127;SDS011;60000;51.030;7.024;2024-01-06T09:40:14;13.97;;;5.30;;
72127;SDS011;60000;51.030;7.024;2024-01-06T09:42:51;14.73;;;5.32;;
72127;SDS011;60000;51.030;7.024;2024-01-06T09:45:18;10.87;;;4.30;;
72127;SDS011;60000;51.030;7.024;2024-01-06T09:47:48;10.52;;;4.13;;
72127;SDS011;60000;51.030;7.024;2024-01-06T09:50:16;13.38;;;4.63;;
72127;SDS011;60000;51.030;7.024;2024-01-06T09:52:45;14.15;;;5.15;;
72127;SDS011;60000;51.030;7.024;2024-01-06T09:55:17;11.27;;;4.18;;
72127;SDS011;60000;51.030;7.024;2024-01-06T09:57:45;12.60;;;4.70;;
72127;SDS011;60000;51.030;7.024;2024-01-06T10:00:10;12.38;;;4.47;;
72127;SDS011;60000;51.030;7.024;2024-01-06T10:02:36;12.23;;;4.80;;
72127;SDS011;60000;51.030;7.024;2024-01-06T10:05:01;11.63;;;4.30;;
72127;SDS011;60000;51.030;7.024;2024-01-06T10:07:27;12.33;;;5.00;;
72127;SDS011;60000;51.030;7.024;2024-01-06T10:09:56;12.98;;;4.72;;
72127;SDS011;60000;51.030;7.024;2024-01-06T10:12:25;12.70;;;5.00;;
72127;SDS011;60000;51.030;7.024;2024-01-06T10:14:51;12.75;;;4.90;;
72127;SDS011;60000;51.030;7.024;2024-01-06T10:17:16;13.17;;;5.47;;
72127;SDS011;60000;51.030;7.024;2024-01-06T10:19:44;12.57;;;5.00;;
72127;SDS011;60000;51.030;7.024;2024-01-06T10:22:10;16.63;;;6.30;;
72127;SDS011;60000;51.030;7.024;2024-01-06T10:24:36;14.83;;;5.90;;
72127;SDS011;60000;51.030;7.024;2024-01-06T10:27:03;14.02;;;5.88;;
72127;SDS011;60000;51.030;7.024;2024-01-06T10:29:29;13.63;;;5.37;;
72127;SDS011;60000;51.030;7.024;2024-01-06T10:31:54;11.98;;;5.15;;
72127;SDS011;60000;51.030;7.024;2024-01-06T10:34:20;13.37;;;5.67;;
72127;SDS011;60000;51.030;7.024;2024-01-06T10:36:45;13.48;;;5.38;;
72127;SDS011;60000;51.030;7.024;2024-01-06T10:39:12;17.17;;;7.07;;
72127;SDS011;60000;51.030;7.024;2024-01-06T10:41:40;15.55;;;6.30;;
72127;SDS011;60000;51.030;7.024;2024-01-06T10:44:07;15.18;;;6.95;;
72127;SDS011;60000;51.030;7.024;2024-01-06T10:46:34;15.55;;;6.72;;
72127;SDS011;60000;51.030;7.024;2024-01-06T10:49:00;13.05;;;6.22;;
72127;SDS011;60000;51.030;7.024;2024-01-06T10:51:25;13.77;;;5.77;;
72127;SDS011;60000;51.030;7.024;2024-01-06T10:53:52;14.25;;;5.97;;
72127;SDS011;60000;51.030;7.024;2024-01-06T10:56:18;16.08;;;6.95;;
72127;SDS011;60000;51.030;7.024;2024-01-06T10:58:47;17.43;;;7.50;;
72127;SDS011;60000;51.030;7.024;2024-01-06T11:01:19;20.30;;;7.38;;
72127;SDS011;60000;51.030;7.024;2024-01-06T11:03:46;19.77;;;8.32;;
72127;SDS011;60000;51.030;7.024;2024-01-06T11:06:13;17.83;;;7.43;;
72127;SDS011;60000;51.030;7.024;2024-01-06T11:11:15;22.25;;;7.90;;
72127;SDS011;60000;51.030;7.024;2024-01-06T11:13:45;19.03;;;7.73;;
72127;SDS011;60000;51.030;7.024;2024-01-06T11:16:26;21.35;;;8.75;;
72127;SDS011;60000;51.030;7.024;2024-01-06T11:18:58;20.05;;;8.85;;
72127;SDS011;60000;51.030;7.024;2024-01-06T11:21:24;20.20;;;8.30;;
72127;SDS011;60000;51.030;7.024;2024-01-06T11:26:44;18.58;;;8.10;;
72127;SDS011;60000;51.030;7.024;2024-01-06T11:29:10;25.07;;;8.67;;
72127;SDS011;60000;51.030;7.024;2024-01-06T11:31:36;20.13;;;8.35;;
72127;SDS011;60000;51.030;7.024;2024-01-06T11:37:01;19.75;;;7.50;;
72127;SDS011;60000;51.030;7.024;2024-01-06T11:42:06;19.23;;;7.73;;
72127;SDS011;60000;51.030;7.024;2024-01-06T11:44:38;17.55;;;7.30;;
72127;SDS011;60000;51.030;7.024;2024-01-06T11:47:04;17.33;;;7.22;;
72127;SDS011;60000;51.030;7.024;2024-01-06T11:49:31;18.42;;;7.40;;
72127;SDS011;60000;51.030;7.024;2024-01-06T11:51:57;21.88;;;8.48;;
72127;SDS011;60000;51.030;7.024;2024-01-06T11:54:23;24.40;;;10.30;;
72127;SDS011;60000;51.030;7.024;2024-01-06T11:56:48;27.65;;;10.60;;
72127;SDS011;60000;51.030;7.024;2024-01-06T11:59:14;26.43;;;10.83;;
72127;SDS011;60000;51.030;7.024;2024-01-06T12:01:39;21.60;;;9.10;;
72127;SDS011;60000;51.030;7.024;2024-01-06T12:04:05;25.50;;;9.95;;
72127;SDS011;60000;51.030;7.024;2024-01-06T12:06:31;24.30;;;10.13;;
72127;SDS011;60000;51.030;7.024;2024-01-06T12:09:07;26.85;;;10.32;;
72127;SDS011;60000;51.030;7.024;2024-01-06T12:11:35;21.80;;;9.35;;
72127;SDS011;60000;51.030;7.024;2024-01-06T12:14:02;21.83;;;8.45;;
72127;SDS011;60000;51.030;7.024;2024-01-06T12:16:31;23.23;;;8.73;;
72127;SDS011;60000;51.030;7.024;2024-01-06T12:18:57;22.98;;;9.20;;
72127;SDS011;60000;51.030;7.024;2024-01-06T12:21:25;22.85;;;8.93;;
72127;SDS011;60000;51.030;7.024;2024-01-06T12:23:51;22.88;;;8.90;;
72127;SDS011;60000;51.030;7.024;2024-01-06T12:26:17;22.40;;;8.60;;
72127;SDS011;60000;51.030;7.024;2024-01-06T12:28:46;21.27;;;8.37;;
72127;SDS011;60000;51.030;7.024;2024-01-06T12:31:12;23.10;;;8.38;;
72127;SDS011;60000;51.030;7.024;2024-01-06T12:33:40;21.75;;;8.82;;
72127;SDS011;60000;51.030;7.024;2024-01-06T12:36:06;19.60;;;8.05;;
72127;SDS011;60000;51.030;7.024;2024-01-06T12:38:33;24.30;;;8.98;;
72127;SDS011;60000;51.030;7.024;2024-01-06T12:40:59;20.92;;;8.27;;
72127;SDS011;60000;51.030;7.024;2024-01-06T12:43:25;21.53;;;9.23;;
72127;SDS011;60000;51.030;7.024;2024-01-06T12:45:50;26.50;;;9.20;;
72127;SDS011;60000;51.030;7.024;2024-01-06T12:48:17;21.07;;;8.20;;
72127;SDS011;60000;51.030;7.024;2024-01-06T12:50:43;20.50;;;7.50;;
72127;SDS011;60000;51.030;7.024;2024-01-06T12:53:08;22.97;;;8.40;;
72127;SDS011;60000;51.030;7.024;2024-01-06T12:55:33;18.77;;;7.77;;
72127;SDS011;60000;51.030;7.024;2024-01-06T12:57:59;21.17;;;8.43;;
72127;SDS011;60000;51.030;7.024;2024-01-06T13:00:28;19.58;;;8.38;;
72127;SDS011;60000;51.030;7.024;2024-01-06T13:02:54;20.10;;;8.27;;
72127;SDS011;60000;51.030;7.024;2024-01-06T13:05:19;25.27;;;9.30;;
72127;SDS011;60000;51.030;7.024;2024-01-06T13:07:44;21.17;;;8.63;;
72127;SDS011;60000;51.030;7.024;2024-01-06T13:10:10;21.38;;;8.90;;
72127;SDS011;60000;51.030;7.024;2024-01-06T13:12:36;21.00;;;8.27;;
72127;SDS011;60000;51.030;7.024;2024-01-06T13:15:01;24.07;;;10.37;;
72127;SDS011;60000;51.030;7.024;2024-01-06T13:17:27;27.20;;;12.15;;
72127;SDS011;60000;51.030;7.024;2024-01-06T13:19:52;27.57;;;11.90;;
72127;SDS011;60000;51.030;7.024;2024-01-06T13:22:17;37.10;;;15.23;;
72127;SDS011;60000;51.030;7.024;2024-01-06T13:24:45;29.00;;;13.25;;
72127;SDS011;60000;51.030;7.024;2024-01-06T13:27:11;34.17;;;15.47;;
72127;SDS011;60000;51.030;7.024;2024-01-06T13:29:36;36.13;;;15.93;;
72127;SDS011;60000;51.030;7.024;2024-01-06T13:32:01;32.47;;;14.60;;
72127;SDS011;60000;51.030;7.024;2024-01-06T13:34:27;28.95;;;12.77;;
72127;SDS011;60000;51.030;7.024;2024-01-06T13:36:54;29.20;;;12.27;;
72127;SDS011;60000;51.030;7.024;2024-01-06T13:39:20;30.13;;;12.90;;
72127;SDS011;60000;51.030;7.024;2024-01-06T13:41:48;34.33;;;15.33;;
72127;SDS011;60000;51.030;7.024;2024-01-06T13:44:14;32.03;;;13.20;;
72127;SDS011;60000;51.030;7.024;2024-01-06T13:46:40;37.70;;;14.87;;
72127;SDS011;60000;51.030;7.024;2024-01-06T13:49:09;33.15;;;14.18;;
72127;SDS011;60000;51.030;7.024;2024-01-06T13:51:35;32.08;;;13.38;;
72127;SDS011;60000;51.030;7.024;2024-01-06T13:54:01;49.50;;;19.87;;
72127;SDS011;60000;51.030;7.024;2024-01-06T13:56:26;137.10;;;51.30;;
72127;SDS011;60000;51.030;7.024;2024-01-06T13:58:51;93.50;;;38.20;;
72127;SDS011;60000;51.030;7.024;2024-01-06T14:01:17;72.37;;;28.17;;
72127;SDS011;60000;51.030;7.024;2024-01-06T14:03:42;146.37;;;47.97;;
72127;SDS011;60000;51.030;7.024;2024-01-06T14:06:07;87.70;;;34.80;;
72127;SDS011;60000;51.030;7.024;2024-01-06T14:08:34;46.97;;;20.52;;
72127;SDS011;60000;51.030;7.024;2024-01-06T14:10:59;81.03;;;35.27;;
72127;SDS011;60000;51.030;7.024;2024-01-06T14:13:24;79.85;;;34.15;;
72127;SDS011;60000;51.030;7.024;2024-01-06T14:15:51;57.67;;;26.17;;
72127;SDS011;60000;51.030;7.024;2024-01-06T14:18:16;64.15;;;30.10;;
72127;SDS011;60000;51.030;7.024;2024-01-06T14:20:42;56.23;;;25.17;;
72127;SDS011;60000;51.030;7.024;2024-01-06T14:23:07;37.37;;;17.43;;
72127;SDS011;60000;51.030;7.024;2024-01-06T14:25:35;39.45;;;16.88;;
72127;SDS011;60000;51.030;7.024;2024-01-06T14:28:00;35.13;;;13.53;;
72127;SDS011;60000;51.030;7.024;2024-01-06T14:30:26;36.90;;;13.38;;
72127;SDS011;60000;51.030;7.024;2024-01-06T14:32:51;32.83;;;12.67;;
72127;SDS011;60000;51.030;7.024;2024-01-06T14:35:17;36.67;;;13.60;;